createdAt,value
2018-09-19T00:00:02.013Z,1.67
2018-09-19T00:02:30.495Z,1.47
2018-09-19T00:04:58.942Z,1.60
2018-09-19T00:07:27.459Z,1.72
2018-09-19T00:09:55.899Z,1.70
2018-09-19T00:12:24.382Z,1.50
2018-09-19T00:14:52.836Z,1.42
2018-09-19T00:17:21.347Z,1.40
2018-09-19T00:19:49.791Z,1.50
2018-09-19T00:22:18.296Z,1.60
2018-09-19T00:24:46.766Z,1.27
2018-09-19T00:27:15.315Z,1.35
2018-09-19T00:29:43.701Z,1.42
2018-09-19T00:32:12.175Z,1.60
2018-09-19T00:34:40.626Z,1.70
2018-09-19T00:37:09.127Z,1.32
2018-09-19T00:39:37.570Z,1.25
2018-09-19T00:42:06.459Z,1.42
2018-09-19T00:44:34.910Z,1.40
2018-09-19T00:47:03.408Z,1.42
2018-09-19T00:49:31.867Z,1.67
2018-09-19T00:52:00.324Z,1.32
2018-09-19T00:54:28.773Z,1.65
2018-09-19T00:56:57.275Z,1.10
2018-09-19T00:59:25.734Z,1.45
2018-09-19T01:01:54.205Z,1.50
2018-09-19T01:04:22.648Z,1.47
2018-09-19T01:06:51.131Z,1.57
2018-09-19T01:09:19.583Z,1.52
2018-09-19T01:11:48.042Z,1.52
2018-09-19T01:14:16.727Z,1.65
2018-09-19T01:16:45.222Z,1.65
2018-09-19T01:19:13.678Z,1.50
2018-09-19T01:21:42.154Z,1.20
2018-09-19T01:24:10.598Z,1.37
2018-09-19T01:26:39.991Z,1.75
2018-09-19T01:29:08.442Z,1.45
2018-09-19T01:31:36.912Z,1.62
2018-09-19T01:34:05.355Z,1.95
2018-09-19T01:36:33.826Z,1.20
2018-09-19T01:39:02.274Z,2.30
2018-09-19T01:41:30.729Z,1.50
2018-09-19T01:43:59.176Z,1.57
2018-09-19T01:46:27.876Z,1.65
2018-09-19T01:48:56.323Z,1.65
2018-09-19T01:51:24.780Z,1.62
2018-09-19T01:53:53.300Z,2.12
2018-09-19T01:56:21.714Z,2.42
2018-09-19T01:58:50.160Z,2.47
2018-09-19T02:01:18.612Z,2.45
2018-09-19T02:03:47.074Z,2.55
2018-09-19T02:06:15.531Z,2.60
2018-09-19T02:08:44.002Z,2.72
2018-09-19T02:11:12.456Z,2.75
2018-09-19T02:13:40.947Z,2.37
2018-09-19T02:16:09.398Z,3.05
2018-09-19T02:18:37.928Z,2.92
2018-09-19T02:21:06.378Z,3.90
2018-09-19T02:23:34.836Z,2.58
2018-09-19T02:26:03.661Z,2.85
2018-09-19T02:28:32.549Z,3.22
2018-09-19T02:31:00.985Z,3.10
2018-09-19T02:33:29.462Z,2.75
2018-09-19T02:35:57.944Z,3.00
2018-09-19T02:38:26.426Z,3.37
2018-09-19T02:40:54.863Z,3.10
2018-09-19T02:43:23.366Z,3.37
2018-09-19T02:45:51.824Z,3.55
2018-09-19T02:48:20.285Z,3.25
2018-09-19T02:50:48.739Z,3.00
2018-09-19T02:53:17.207Z,3.05
2018-09-19T02:55:45.651Z,3.02
2018-09-19T02:58:14.119Z,3.37
2018-09-19T03:00:42.561Z,3.15
2018-09-19T03:03:11.039Z,3.60
2018-09-19T03:05:39.540Z,4.10
2018-09-19T03:08:08.051Z,3.20
2018-09-19T03:10:36.495Z,3.33
2018-09-19T03:13:04.957Z,3.85
2018-09-19T03:15:33.452Z,3.83
2018-09-19T03:18:01.911Z,3.20
2018-09-19T03:20:30.360Z,3.37
2018-09-19T03:22:58.822Z,3.77
2018-09-19T03:25:27.270Z,3.50
2018-09-19T03:27:55.725Z,3.33
2018-09-19T03:30:24.587Z,3.80
2018-09-19T03:32:53.049Z,3.47
2018-09-19T03:35:21.528Z,3.60
2018-09-19T03:37:49.989Z,4.28
2018-09-19T03:40:18.448Z,3.55
2018-09-19T03:42:46.906Z,3.00
2018-09-19T03:45:15.350Z,3.35
2018-09-19T03:47:44.037Z,3.50
2018-09-19T03:50:12.493Z,3.80
2018-09-19T03:52:40.971Z,3.50
2018-09-19T03:55:09.784Z,3.80
2018-09-19T03:57:38.260Z,3.47
2018-09-19T04:00:06.861Z,3.22
2018-09-19T04:02:35.307Z,3.85
2018-09-19T04:05:03.799Z,3.85
2018-09-19T04:07:32.253Z,3.65
2018-09-19T04:10:00.724Z,3.92
2018-09-19T04:12:29.189Z,4.03
2018-09-19T04:14:57.675Z,4.55
2018-09-19T04:17:26.119Z,4.28
2018-09-19T04:19:54.675Z,4.42
2018-09-19T04:22:23.116Z,4.85
2018-09-19T04:24:51.578Z,4.10
2018-09-19T04:27:20.042Z,5.05
2018-09-19T04:29:48.487Z,5.42
2018-09-19T04:32:16.983Z,4.33
2018-09-19T04:34:45.398Z,4.92
2018-09-19T04:37:13.866Z,4.85
2018-09-19T04:39:42.329Z,4.97
2018-09-19T04:42:10.772Z,4.67
2018-09-19T04:44:39.235Z,4.40
2018-09-19T04:47:07.668Z,4.62
2018-09-19T04:49:36.129Z,4.80
2018-09-19T04:52:06.755Z,4.78
2018-09-19T04:54:35.788Z,5.17
2018-09-19T04:57:04.275Z,4.72
2018-09-19T04:59:32.742Z,5.50
2018-09-19T05:02:01.197Z,4.97
2018-09-19T05:04:29.662Z,5.05
2018-09-19T05:06:58.123Z,4.72
2018-09-19T05:09:26.620Z,5.47
2018-09-19T05:11:55.093Z,5.22
2018-09-19T05:14:23.578Z,4.80
2018-09-19T05:16:52.047Z,4.75
2018-09-19T05:19:20.536Z,4.97
2018-09-19T05:21:49.006Z,4.62
2018-09-19T05:24:17.490Z,4.92
2018-09-19T05:26:45.957Z,4.50
2018-09-19T05:29:14.433Z,4.55
2018-09-19T05:31:42.952Z,4.90
2018-09-19T05:34:11.385Z,4.62
2018-09-19T05:36:39.870Z,4.90
2018-09-19T05:39:08.802Z,4.85
2018-09-19T05:41:37.747Z,5.20
2018-09-19T05:44:06.235Z,4.78
2018-09-19T05:46:34.720Z,4.75
2018-09-19T05:49:03.185Z,4.95
2018-09-19T05:51:31.658Z,5.72
2018-09-19T05:54:00.547Z,5.45
2018-09-19T05:56:28.988Z,5.25
2018-09-19T05:58:57.489Z,4.90
2018-09-19T06:01:25.927Z,4.95
2018-09-19T06:03:54.463Z,5.62
2018-09-19T06:06:22.941Z,4.95
2018-09-19T06:08:51.447Z,5.70
2018-09-19T06:11:19.970Z,5.58
2018-09-19T06:13:48.567Z,4.65
2018-09-19T06:16:17.045Z,4.75
2018-09-19T06:18:45.504Z,4.70
2018-09-19T06:21:13.987Z,4.47
2018-09-19T06:23:42.455Z,4.92
2018-09-19T06:26:10.927Z,4.58
2018-09-19T06:28:39.396Z,4.70
2018-09-19T06:31:07.965Z,4.30
2018-09-19T06:33:36.637Z,4.30
2018-09-19T06:36:04.935Z,4.47
2018-09-19T06:38:33.378Z,4.78
2018-09-19T06:41:01.989Z,4.53
2018-09-19T06:43:30.341Z,4.00
2018-09-19T06:45:58.879Z,4.40
2018-09-19T06:48:27.349Z,3.98
2018-09-19T06:50:56.249Z,4.37
2018-09-19T06:53:24.674Z,4.62
2018-09-19T06:55:53.133Z,3.90
2018-09-19T06:58:21.591Z,4.00
2018-09-19T07:00:50.062Z,4.62
2018-09-19T07:03:18.503Z,4.12
2018-09-19T07:05:47.108Z,3.75
2018-09-19T07:08:15.680Z,3.85
2018-09-19T07:10:44.224Z,4.40
2018-09-19T07:13:12.609Z,3.95
2018-09-19T07:15:41.091Z,3.67
2018-09-19T07:18:09.549Z,3.37
2018-09-19T07:20:38.009Z,3.65
2018-09-19T07:23:06.564Z,3.87
2018-09-19T07:25:35.032Z,3.05
2018-09-19T07:28:03.488Z,3.45
2018-09-19T07:30:31.967Z,3.40
2018-09-19T07:33:00.410Z,3.40
2018-09-19T07:35:28.895Z,3.50
2018-09-19T07:37:57.333Z,3.22
2018-09-19T07:40:25.848Z,3.87
2018-09-19T07:42:54.291Z,3.95
2018-09-19T07:45:22.742Z,4.03
2018-09-19T07:47:51.189Z,3.80
2018-09-19T07:50:19.681Z,3.75
2018-09-19T07:52:48.119Z,3.87
2018-09-19T07:55:16.680Z,3.75
2018-09-19T07:57:45.080Z,3.90
2018-09-19T08:00:13.531Z,3.17
2018-09-19T08:02:41.987Z,3.25
2018-09-19T08:05:10.440Z,3.20
2018-09-19T08:07:38.937Z,3.12
2018-09-19T08:10:07.392Z,3.25
2018-09-19T08:12:35.842Z,3.00
2018-09-19T08:15:04.330Z,3.60
2018-09-19T08:17:32.807Z,2.95
2018-09-19T08:20:01.249Z,3.65
2018-09-19T08:22:29.738Z,2.70
2018-09-19T08:24:58.166Z,3.10
2018-09-19T08:27:26.611Z,2.75
2018-09-19T08:29:55.062Z,2.77
2018-09-19T08:32:23.510Z,2.65
2018-09-19T08:34:51.997Z,2.62
2018-09-19T08:37:20.487Z,3.08
2018-09-19T08:39:48.942Z,2.98
2018-09-19T08:42:17.521Z,3.17
2018-09-19T08:44:45.962Z,2.70
2018-09-19T08:47:14.435Z,2.37
2018-09-19T08:49:42.867Z,3.00
2018-09-19T08:52:11.448Z,2.92
2018-09-19T08:54:39.904Z,3.40
2018-09-19T08:57:08.505Z,2.80
2018-09-19T08:59:37.067Z,2.75
2018-09-19T09:02:05.536Z,2.50
2018-09-19T09:04:33.967Z,2.47
2018-09-19T09:07:02.418Z,2.80
2018-09-19T09:09:30.851Z,2.72
2018-09-19T09:11:59.350Z,2.45
2018-09-19T09:14:27.768Z,2.50
2018-09-19T09:16:56.227Z,2.67
2018-09-19T09:19:24.666Z,2.92
2018-09-19T09:21:53.132Z,3.02
2018-09-19T09:24:21.583Z,2.87
2018-09-19T09:26:50.088Z,3.37
2018-09-19T09:29:18.540Z,3.20
2018-09-19T09:31:47.004Z,3.12
2018-09-19T09:34:15.472Z,3.00
2018-09-19T09:36:43.980Z,2.92
2018-09-19T09:39:12.403Z,3.45
2018-09-19T09:41:40.871Z,3.15
2018-09-19T09:44:09.317Z,3.42
2018-09-19T09:46:37.792Z,3.70
2018-09-19T09:49:06.260Z,3.67
2018-09-19T09:51:34.731Z,2.92
2018-09-19T09:54:03.208Z,3.55
2018-09-19T09:56:31.689Z,3.27
2018-09-19T09:59:00.162Z,3.33
2018-09-19T10:01:28.606Z,3.45
2018-09-19T10:03:57.079Z,3.08
2018-09-19T10:06:25.546Z,3.22
2018-09-19T10:08:53.975Z,3.55
2018-09-19T10:11:22.440Z,3.45
2018-09-19T10:13:50.974Z,4.08
2018-09-19T10:16:19.374Z,3.22
2018-09-19T10:18:47.875Z,3.20
2018-09-19T10:21:16.303Z,2.77
2018-09-19T10:23:44.783Z,3.22
2018-09-19T10:26:13.263Z,2.95
2018-09-19T10:28:41.711Z,2.72
2018-09-19T10:31:10.150Z,2.52
2018-09-19T10:33:38.642Z,2.42
2018-09-19T10:36:07.107Z,2.60
2018-09-19T10:38:35.571Z,2.65
2018-09-19T10:41:04.014Z,2.52
2018-09-19T10:43:32.469Z,2.70
2018-09-19T10:46:00.897Z,2.37
2018-09-19T10:48:29.363Z,2.33
2018-09-19T10:50:57.799Z,2.40
2018-09-19T10:53:26.265Z,2.33
2018-09-19T10:55:54.738Z,3.17
2018-09-19T10:58:23.236Z,2.40
2018-09-19T11:00:51.662Z,2.83
2018-09-19T11:03:20.115Z,2.10
2018-09-19T11:05:48.555Z,2.70
2018-09-19T11:08:17.079Z,2.70
2018-09-19T11:10:45.577Z,3.00
2018-09-19T11:13:14.030Z,2.65
2018-09-19T11:15:42.479Z,2.50
2018-09-19T11:18:10.921Z,2.27
2018-09-19T11:20:39.475Z,2.30
2018-09-19T11:23:07.935Z,2.37
2018-09-19T11:25:36.396Z,2.58
2018-09-19T11:28:05.318Z,2.70
2018-09-19T11:30:33.878Z,2.72
2018-09-19T11:33:02.407Z,2.47
2018-09-19T11:35:30.869Z,2.70
2018-09-19T11:37:59.342Z,2.58
2018-09-19T11:40:27.786Z,2.45
2018-09-19T11:42:56.236Z,2.90
2018-09-19T11:45:24.684Z,2.70
2018-09-19T11:47:53.150Z,2.47
2018-09-19T11:50:21.599Z,2.50
2018-09-19T11:52:50.059Z,2.20
2018-09-19T11:55:18.502Z,2.50
2018-09-19T11:57:46.944Z,2.52
2018-09-19T12:00:15.406Z,2.55
2018-09-19T12:02:43.851Z,3.15
2018-09-19T12:05:12.323Z,2.50
2018-09-19T12:07:40.763Z,3.12
2018-09-19T12:10:09.668Z,2.52
2018-09-19T12:12:38.986Z,2.60
2018-09-19T12:15:08.443Z,2.98
2018-09-19T12:17:36.891Z,2.70
2018-09-19T12:20:05.503Z,1.90
2018-09-19T12:22:34.158Z,2.67
2018-09-19T12:25:02.685Z,2.65
2018-09-19T12:27:31.116Z,2.40
2018-09-19T12:30:00.057Z,2.40
2018-09-19T12:32:28.496Z,2.30
2018-09-19T12:34:56.946Z,2.35
2018-09-19T12:37:25.389Z,2.50
2018-09-19T12:39:53.839Z,2.55
2018-09-19T12:42:22.275Z,1.98
2018-09-19T12:44:50.733Z,2.35
2018-09-19T12:47:19.440Z,2.22
2018-09-19T12:49:47.962Z,2.20
2018-09-19T12:52:16.405Z,2.30
2018-09-19T12:54:44.859Z,1.92
2018-09-19T12:57:13.299Z,1.77
2018-09-19T12:59:41.750Z,2.02
2018-09-19T13:02:10.181Z,2.35
2018-09-19T13:04:38.635Z,2.10
2018-09-19T13:07:07.102Z,2.05
2018-09-19T13:09:35.568Z,2.27
2018-09-19T13:12:04.002Z,2.00
2018-09-19T13:14:32.451Z,1.85
2018-09-19T13:17:00.882Z,1.80
2018-09-19T13:19:29.340Z,1.70
2018-09-19T13:21:57.778Z,1.62
2018-09-19T13:24:26.310Z,1.82
2018-09-19T13:26:54.783Z,1.45
2018-09-19T13:29:23.243Z,1.57
2018-09-19T13:31:51.981Z,1.87
2018-09-19T13:34:20.444Z,1.67
2018-09-19T13:36:48.899Z,1.52
2018-09-19T13:39:17.347Z,1.67
2018-09-19T13:41:45.792Z,1.62
2018-09-19T13:44:14.239Z,1.50
2018-09-19T13:46:42.691Z,1.40
2018-09-19T13:49:32.315Z,1.60
2018-09-19T13:52:00.733Z,1.60
2018-09-19T13:54:29.214Z,1.95
2018-09-19T13:56:57.634Z,1.87
2018-09-19T13:59:26.096Z,1.82
2018-09-19T14:01:54.518Z,2.00
2018-09-19T14:04:23.016Z,1.75
2018-09-19T14:06:51.447Z,1.77
2018-09-19T14:09:19.870Z,1.70
2018-09-19T14:11:48.356Z,1.70
2018-09-19T14:14:16.791Z,1.92
2018-09-19T14:16:45.327Z,1.72
2018-09-19T14:19:14.591Z,1.50
2018-09-19T14:21:43.060Z,1.60
2018-09-19T14:24:11.491Z,1.80
2018-09-19T14:26:39.987Z,1.98
2018-09-19T14:29:08.422Z,1.87
2018-09-19T14:31:36.950Z,1.90
2018-09-19T14:34:05.391Z,1.90
2018-09-19T14:36:33.870Z,1.87
2018-09-19T14:39:02.378Z,1.60
2018-09-19T14:41:30.842Z,2.05
2018-09-19T14:43:59.323Z,1.92
2018-09-19T14:46:27.774Z,1.72
2018-09-19T14:48:56.240Z,1.45
2018-09-19T14:51:24.695Z,1.65
2018-09-19T14:53:53.141Z,1.98
2018-09-19T14:56:21.663Z,2.08
2018-09-19T14:58:50.107Z,2.12
2018-09-19T15:01:18.903Z,1.90
2018-09-19T15:03:47.341Z,1.77
2018-09-19T15:06:15.807Z,1.82
2018-09-19T15:08:44.261Z,1.92
2018-09-19T15:11:12.730Z,1.70
2018-09-19T15:13:41.210Z,1.90
2018-09-19T15:16:10.179Z,2.80
2018-09-19T15:18:38.863Z,2.22
2018-09-19T15:21:07.374Z,2.22
2018-09-19T15:23:35.810Z,2.20
2018-09-19T15:26:04.279Z,2.37
2018-09-19T15:28:32.788Z,2.10
2018-09-19T15:31:01.196Z,2.15
2018-09-19T15:33:29.657Z,2.08
2018-09-19T15:35:58.209Z,2.12
2018-09-19T15:38:26.728Z,2.05
2018-09-19T15:40:55.135Z,1.92
2018-09-19T15:43:23.567Z,2.30
2018-09-19T15:45:52.037Z,1.80
2018-09-19T15:48:20.503Z,2.12
2018-09-19T15:50:49.428Z,2.05
2018-09-19T15:53:17.861Z,2.00
2018-09-19T15:55:46.338Z,2.15
2018-09-19T15:58:15.029Z,2.33
2018-09-19T16:00:43.534Z,1.65
2018-09-19T16:03:11.998Z,1.90
2018-09-19T16:05:40.490Z,1.75
2018-09-19T16:08:08.920Z,2.00
2018-09-19T16:10:37.409Z,2.00
2018-09-19T16:13:05.871Z,1.87
2018-09-19T16:15:34.303Z,2.10
2018-09-19T16:18:02.765Z,2.17
2018-09-19T16:20:31.195Z,2.42
2018-09-19T16:22:59.642Z,1.85
2018-09-19T16:25:28.074Z,1.98
2018-09-19T16:27:56.524Z,1.90
2018-09-19T16:30:24.962Z,2.02
2018-09-19T16:32:53.427Z,2.12
2018-09-19T16:35:22.290Z,1.95
2018-09-19T16:37:51.063Z,1.77
2018-09-19T16:40:19.508Z,2.27
2018-09-19T16:42:47.978Z,2.27
2018-09-19T16:45:16.427Z,2.00
2018-09-19T16:47:44.923Z,2.40
2018-09-19T16:50:13.491Z,2.22
2018-09-19T16:52:41.947Z,2.50
2018-09-19T16:55:10.404Z,1.80
2018-09-19T16:57:38.863Z,2.35
2018-09-19T17:00:07.978Z,2.52
2018-09-19T17:02:36.418Z,2.40
2018-09-19T17:05:04.907Z,2.12
2018-09-19T17:07:33.365Z,2.10
2018-09-19T17:10:01.794Z,1.92
2018-09-19T17:12:30.255Z,2.40
2018-09-19T17:15:05.268Z,2.52
2018-09-19T17:17:43.040Z,2.70
2018-09-19T17:20:11.599Z,2.72
2018-09-19T17:22:40.057Z,2.90
2018-09-19T17:25:08.500Z,2.58
2018-09-19T17:27:36.968Z,2.70
2018-09-19T17:30:06.075Z,3.58
2018-09-19T17:32:34.535Z,3.58
2018-09-19T17:35:02.974Z,3.02
2018-09-19T17:37:31.439Z,3.05
2018-09-19T17:39:59.891Z,3.12
2018-09-19T17:42:28.355Z,2.98
2018-09-19T17:44:56.851Z,2.83
2018-09-19T17:47:25.315Z,2.90
2018-09-19T17:49:53.844Z,3.25
2018-09-19T17:52:22.254Z,3.35
2018-09-19T17:54:50.711Z,3.80
2018-09-19T17:57:19.150Z,3.90
2018-09-19T17:59:47.605Z,3.95
2018-09-19T18:02:16.078Z,4.08
2018-09-19T18:04:44.601Z,4.00
2018-09-19T18:07:13.040Z,4.30
2018-09-19T18:09:41.514Z,3.83
2018-09-19T18:12:09.960Z,3.95
2018-09-19T18:14:38.405Z,3.47
2018-09-19T18:17:06.864Z,3.65
2018-09-19T18:19:35.339Z,3.90
2018-09-19T18:22:03.770Z,3.83
2018-09-19T18:24:32.660Z,4.70
2018-09-19T18:27:01.134Z,4.67
2018-09-19T18:29:29.577Z,3.95
2018-09-19T18:31:58.007Z,4.15
2018-09-19T18:34:26.454Z,3.72
2018-09-19T18:36:54.942Z,4.03
2018-09-19T18:39:23.403Z,3.92
2018-09-19T18:41:51.817Z,4.75
2018-09-19T18:44:20.290Z,4.03
2018-09-19T18:46:49.566Z,4.58
2018-09-19T18:49:18.023Z,5.08
2018-09-19T18:51:46.480Z,4.10
2018-09-19T18:54:19.121Z,4.75
2018-09-19T18:56:47.582Z,4.40
2018-09-19T18:59:16.003Z,5.10
2018-09-19T19:01:45.127Z,5.00
2018-09-19T19:04:13.899Z,4.85
2018-09-19T19:06:42.562Z,5.00
2018-09-19T19:09:11.758Z,5.62
2018-09-19T19:11:40.235Z,5.70
2018-09-19T19:14:08.703Z,4.65
2018-09-19T19:16:37.154Z,4.70
2018-09-19T19:19:05.827Z,4.40
2018-09-19T19:21:34.319Z,4.47
2018-09-19T19:24:02.751Z,4.50
2018-09-19T19:26:31.214Z,4.78
2018-09-19T19:28:59.642Z,5.35
2018-09-19T19:31:28.094Z,5.20
2018-09-19T19:33:56.528Z,4.50
2018-09-19T19:36:24.985Z,4.95
2018-09-19T19:38:53.411Z,4.95
2018-09-19T19:41:21.886Z,4.80
2018-09-19T19:43:50.331Z,4.80
2018-09-19T19:46:18.827Z,4.65
2018-09-19T19:48:47.295Z,5.28
2018-09-19T19:51:15.752Z,5.10
2018-09-19T19:53:44.227Z,4.95
2018-09-19T19:56:12.688Z,5.15
2018-09-19T19:58:41.131Z,5.00
2018-09-19T20:01:09.594Z,5.05
2018-09-19T20:03:38.046Z,4.95
2018-09-19T20:06:06.595Z,5.17
2018-09-19T20:08:35.039Z,5.17
2018-09-19T20:11:03.504Z,5.00
2018-09-19T20:13:31.966Z,5.50
2018-09-19T20:16:00.454Z,4.83
2018-09-19T20:18:28.926Z,5.15
2018-09-19T20:20:57.403Z,5.30
2018-09-19T20:23:25.863Z,5.28
2018-09-19T20:25:54.320Z,5.65
2018-09-19T20:28:22.763Z,5.55
2018-09-19T20:30:51.198Z,5.90
2018-09-19T20:33:19.650Z,5.35
2018-09-19T20:35:48.127Z,5.15
2018-09-19T20:38:16.589Z,5.90
2018-09-19T20:40:45.022Z,5.33
2018-09-19T20:43:13.486Z,5.85
2018-09-19T20:45:41.963Z,5.12
2018-09-19T20:48:10.463Z,6.08
2018-09-19T20:50:38.910Z,5.70
2018-09-19T20:53:07.375Z,5.53
2018-09-19T20:55:35.818Z,5.12
2018-09-19T20:58:04.283Z,5.55
2018-09-19T21:00:32.714Z,6.20
2018-09-19T21:03:01.193Z,4.85
2018-09-19T21:05:29.631Z,5.47
2018-09-19T21:07:58.099Z,5.97
2018-09-19T21:10:26.671Z,5.75
2018-09-19T21:12:55.123Z,5.78
2018-09-19T21:15:23.686Z,5.80
2018-09-19T21:17:52.137Z,5.67
2018-09-19T21:20:20.583Z,6.08
2018-09-19T21:22:49.132Z,5.78
2018-09-19T21:25:17.519Z,6.20
2018-09-19T21:27:46.020Z,6.92
2018-09-19T21:30:14.488Z,5.95
2018-09-19T21:32:42.961Z,6.72
2018-09-19T21:41:17.595Z,6.37
2018-09-19T21:43:46.065Z,7.22
2018-09-19T21:46:14.510Z,6.58
2018-09-19T21:48:42.984Z,6.92
2018-09-19T21:51:11.423Z,7.17
2018-09-19T21:53:39.895Z,6.90
2018-09-19T21:56:08.379Z,6.00
2018-09-19T21:58:36.855Z,6.58
2018-09-19T22:01:08.366Z,7.35
2018-09-19T22:03:37.824Z,6.85
2018-09-19T22:06:06.294Z,6.55
2018-09-19T22:08:35.115Z,7.12
2018-09-19T22:11:03.550Z,6.80
2018-09-19T22:13:32.024Z,7.22
2018-09-19T22:16:00.483Z,7.53
2018-09-19T22:18:28.950Z,7.17
2018-09-19T22:20:57.400Z,6.78
2018-09-19T22:23:25.886Z,7.37
2018-09-19T22:25:54.403Z,7.65
2018-09-19T22:28:22.892Z,7.60
2018-09-19T22:30:51.830Z,8.05
2018-09-19T22:33:20.308Z,7.85
2018-09-19T22:35:48.790Z,7.97
2018-09-19T22:38:17.282Z,8.78
2018-09-19T22:40:45.736Z,7.28
2018-09-19T22:43:14.420Z,8.43
2018-09-19T22:45:42.858Z,7.47
2018-09-19T22:48:11.334Z,7.08
2018-09-19T22:50:39.774Z,6.80
2018-09-19T22:53:08.235Z,6.72
2018-09-19T22:55:36.703Z,7.65
2018-09-19T22:58:05.187Z,7.62
2018-09-19T23:00:33.647Z,7.83
2018-09-19T23:03:02.123Z,8.00
2018-09-19T23:05:30.594Z,7.67
2018-09-19T23:07:59.059Z,7.75
2018-09-19T23:10:27.568Z,8.23
2018-09-19T23:12:56.023Z,7.42
2018-09-19T23:15:24.524Z,8.33
2018-09-19T23:17:52.990Z,7.72
2018-09-19T23:20:21.467Z,7.53
2018-09-19T23:22:49.928Z,8.20
2018-09-19T23:25:18.407Z,8.05
2018-09-19T23:27:46.863Z,7.87
2018-09-19T23:30:15.339Z,8.08
2018-09-19T23:32:43.846Z,7.72
2018-09-19T23:35:12.339Z,7.67
2018-09-19T23:37:40.806Z,7.25
2018-09-19T23:40:09.284Z,7.25
2018-09-19T23:42:37.775Z,7.27
2018-09-19T23:45:06.427Z,7.77
2018-09-19T23:47:34.872Z,8.68
2018-09-19T23:50:03.354Z,7.50
2018-09-19T23:52:31.817Z,7.53
2018-09-19T23:55:00.290Z,7.15
2018-09-19T23:57:28.744Z,7.03
2018-09-19T23:59:57.271Z,8.23
